Time;durP1;ratioP1;P1;durP2;ratioP2;P2;SDS_P1;SDS_P2;PMS_P1;PMS_P2;Temp;Humidity;BMP_temperature;BMP_pressure;BME280_temperature;BME280_humidity;BME280_pressure;Samples;Min_cycle;Max_cycle;Signal;HPM_P1;HPM_P2
2022/10/31 00:02:00;;;;;;;20.67;15.03;;;;;;;;;;4993130;28;20232;-80
2022/10/31 00:04:29;;;;;;;25.57;14.87;;;;;;;;;;4976303;28;20210;-79
2022/10/31 00:06:59;;;;;;;21.00;14.40;;;;;;;;;;4979527;28;20632;-79
2022/10/31 00:09:27;;;;;;;22.30;15.17;;;;;;;;;;4990516;28;20292;-79
2022/10/31 00:11:56;;;;;;;44.90;15.60;;;;;;;;;;4994516;28;20316;-80
2022/10/31 00:14:24;;;;;;;19.37;15.07;;;;;;;;;;4986231;28;20300;-79
2022/10/31 00:16:53;;;;;;;21.03;15.27;;;;;;;;;;4979320;28;20690;-80
2022/10/31 00:19:21;;;;;;;22.73;15.00;;;;;;;;;;4994525;28;20256;-80
2022/10/31 00:21:50;;;;;;;30.27;15.93;;;;;;;;;;4993611;28;20287;-79
2022/10/31 00:24:20;;;;;;;22.60;17.47;;;;;;;;;;4994832;28;20639;-80
2022/10/31 00:26:48;;;;;;;24.60;17.17;;;;;;;;;;4980675;28;20241;-80
2022/10/31 00:29:17;;;;;;;23.03;17.47;;;;;;;;;;4977674;28;20300;-80
2022/10/31 00:31:45;;;;;;;24.83;17.60;;;;;;;;;;4994421;28;20656;-79
2022/10/31 00:34:14;;;;;;;26.30;18.57;;;;;;;;;;4990504;28;20202;-80
2022/10/31 00:36:42;;;;;;;27.50;18.50;;;;;;;;;;4987187;28;20312;-80
2022/10/31 00:39:11;;;;;;;36.20;20.07;;;;;;;;;;4996543;28;20205;-80
2022/10/31 00:41:40;;;;;;;22.57;18.70;;;;;;;;;;4995111;28;20292;-79
2022/10/31 00:44:09;;;;;;;26.07;18.77;;;;;;;;;;4994200;28;20296;-80
2022/10/31 00:46:37;;;;;;;28.77;19.23;;;;;;;;;;4994070;28;20348;-80
2022/10/31 00:49:06;;;;;;;27.63;19.20;;;;;;;;;;4995922;28;20205;-80
2022/10/31 00:51:34;;;;;;;28.50;20.10;;;;;;;;;;4995212;28;20251;-80
2022/10/31 00:54:03;;;;;;;44.80;21.10;;;;;;;;;;4995366;28;20642;-80
2022/10/31 00:56:31;;;;;;;31.53;19.77;;;;;;;;;;4995231;28;20205;-80
2022/10/31 00:59:01;;;;;;;27.00;20.20;;;;;;;;;;4995162;28;20206;-80
2022/10/31 01:01:29;;;;;;;28.77;21.27;;;;;;;;;;4994250;28;20267;-79
2022/10/31 01:03:58;;;;;;;32.53;20.57;;;;;;;;;;4994644;28;20633;-80
2022/10/31 01:06:27;;;;;;;28.70;20.97;;;;;;;;;;4993072;28;20237;-80
2022/10/31 01:08:55;;;;;;;30.40;21.73;;;;;;;;;;4993903;28;20251;-80
2022/10/31 01:11:24;;;;;;;31.73;21.93;;;;;;;;;;4994067;28;20283;-80
2022/10/31 01:13:53;;;;;;;31.00;22.93;;;;;;;;;;4993712;28;20288;-79
2022/10/31 01:16:24;;;;;;;33.13;23.17;;;;;;;;;;4993447;28;20256;-79
2022/10/31 01:18:53;;;;;;;31.80;23.03;;;;;;;;;;4993833;28;20299;-80
2022/10/31 01:21:22;;;;;;;38.10;24.40;;;;;;;;;;4990890;28;20320;-79
2022/10/31 01:23:51;;;;;;;36.70;23.40;;;;;;;;;;4993717;28;20296;-80
2022/10/31 01:26:20;;;;;;;36.10;24.27;;;;;;;;;;4993327;28;20220;-79
2022/10/31 01:28:49;;;;;;;30.10;23.47;;;;;;;;;;4993566;28;20575;-80
2022/10/31 01:31:18;;;;;;;35.83;23.63;;;;;;;;;;4993620;28;20229;-80
2022/10/31 01:33:49;;;;;;;33.93;24.33;;;;;;;;;;4996175;28;20212;-80
2022/10/31 01:36:19;;;;;;;35.70;25.43;;;;;;;;;;4997270;28;20209;-80
2022/10/31 01:38:48;;;;;;;34.43;25.60;;;;;;;;;;4997510;28;20466;-80
2022/10/31 01:41:17;;;;;;;43.00;27.17;;;;;;;;;;4984020;28;20283;-80
2022/10/31 01:43:47;;;;;;;36.20;26.50;;;;;;;;;;4997832;28;20206;-80
2022/10/31 01:46:16;;;;;;;37.10;26.13;;;;;;;;;;4997296;28;20264;-80
2022/10/31 01:48:45;;;;;;;42.47;27.70;;;;;;;;;;4984565;28;20214;-80
2022/10/31 01:51:16;;;;;;;39.47;27.13;;;;;;;;;;4977460;28;20316;-80
2022/10/31 01:53:46;;;;;;;36.17;25.17;;;;;;;;;;4991679;28;20248;-80
2022/10/31 01:56:15;;;;;;;38.93;27.77;;;;;;;;;;4996726;28;20244;-80
2022/10/31 01:58:44;;;;;;;39.07;27.70;;;;;;;;;;4996875;28;20612;-79
2022/10/31 02:01:14;;;;;;;34.87;26.20;;;;;;;;;;4996978;28;20587;-80
2022/10/31 02:03:43;;;;;;;37.67;27.10;;;;;;;;;;4993292;28;20284;-79
2022/10/31 02:06:16;;;;;;;43.03;28.50;;;;;;;;;;4983672;28;20238;-80
2022/10/31 02:08:47;;;;;;;40.77;28.90;;;;;;;;;;4994943;28;20209;-80
2022/10/31 02:11:16;;;;;;;44.60;27.23;;;;;;;;;;4997129;28;20260;-80
2022/10/31 02:13:44;;;;;;;37.67;26.70;;;;;;;;;;4996459;28;20260;-79
2022/10/31 02:16:13;;;;;;;35.67;25.23;;;;;;;;;;4996443;28;20251;-79
2022/10/31 02:18:42;;;;;;;32.83;24.50;;;;;;;;;;4996126;28;20573;-79
2022/10/31 02:21:16;;;;;;;35.93;25.50;;;;;;;;;;4992524;28;20315;-79
2022/10/31 02:24:09;;;;;;;42.40;27.83;;;;;;;;;;4993324;28;20618;-79
2022/10/31 02:27:04;;;;;;;40.53;28.03;;;;;;;;;;4994868;28;20285;-79
2022/10/31 02:30:02;;;;;;;27.73;21.43;;;;;;;;;;4996064;28;20285;-79
2022/10/31 02:32:35;;;;;;;46.07;23.87;;;;;;;;;;4988390;28;20670;-79
2022/10/31 02:35:08;;;;;;;32.30;23.47;;;;;;;;;;4994613;28;20280;-79
2022/10/31 02:37:39;;;;;;;35.50;24.93;;;;;;;;;;4995269;28;20236;-80
2022/10/31 02:40:12;;;;;;;32.63;23.93;;;;;;;;;;4996092;28;20251;-79
2022/10/31 02:42:44;;;;;;;32.87;23.57;;;;;;;;;;4996005;28;20193;-80
2022/10/31 02:45:15;;;;;;;32.27;25.43;;;;;;;;;;4995055;28;20221;-79
2022/10/31 02:47:46;;;;;;;43.77;28.33;;;;;;;;;;4995972;28;20244;-79
2022/10/31 02:50:19;;;;;;;43.27;27.87;;;;;;;;;;4996018;28;20201;-79
2022/10/31 02:52:51;;;;;;;62.70;20.33;;;;;;;;;;4998048;28;20204;-80
2022/10/31 02:55:38;;;;;;;20.17;14.83;;;;;;;;;;4977395;28;20659;-80
2022/10/31 02:58:10;;;;;;;28.63;23.47;;;;;;;;;;4981029;28;20286;-80
2022/10/31 03:00:40;;;;;;;40.57;26.73;;;;;;;;;;4995473;28;20257;-79
2022/10/31 03:03:15;;;;;;;39.93;29.03;;;;;;;;;;4990296;28;20666;-80
2022/10/31 03:05:52;;;;;;;45.47;29.00;;;;;;;;;;4989112;28;20248;-80
2022/10/31 03:08:25;;;;;;;49.40;31.63;;;;;;;;;;4982844;28;20217;-79
2022/10/31 03:10:55;;;;;;;48.20;32.00;;;;;;;;;;4995447;28;20221;-80
2022/10/31 03:13:27;;;;;;;50.87;31.43;;;;;;;;;;4996442;28;20208;-79
2022/10/31 03:15:58;;;;;;;53.77;33.20;;;;;;;;;;4995420;28;20194;-80
2022/10/31 03:18:30;;;;;;;51.17;32.27;;;;;;;;;;4995283;28;20319;-80
2022/10/31 03:21:00;;;;;;;49.17;32.23;;;;;;;;;;4995211;28;20275;-79
2022/10/31 03:23:30;;;;;;;46.40;30.17;;;;;;;;;;4990408;28;20230;-80
2022/10/31 03:25:59;;;;;;;37.70;27.27;;;;;;;;;;4976137;28;20301;-80
2022/10/31 03:28:30;;;;;;;36.27;26.07;;;;;;;;;;4989350;28;20240;-80
2022/10/31 03:30:59;;;;;;;38.80;26.27;;;;;;;;;;4995559;28;20268;-80
2022/10/31 03:33:36;;;;;;;42.13;25.57;;;;;;;;;;4986729;28;20838;-79
2022/10/31 03:36:06;;;;;;;41.30;25.60;;;;;;;;;;4995135;28;20696;-79
2022/10/31 03:38:35;;;;;;;52.60;24.40;;;;;;;;;;4980465;28;20682;-79
2022/10/31 03:41:05;;;;;;;36.03;25.80;;;;;;;;;;4986479;28;20707;-80
2022/10/31 03:43:34;;;;;;;40.30;26.50;;;;;;;;;;4995347;28;20206;-80
2022/10/31 03:46:03;;;;;;;39.30;25.77;;;;;;;;;;4994535;28;20251;-80
2022/10/31 03:48:33;;;;;;;41.30;25.60;;;;;;;;;;4989930;28;20240;-79
2022/10/31 03:51:06;;;;;;;38.90;26.17;;;;;;;;;;4975246;28;20261;-80
2022/10/31 03:53:38;;;;;;;39.03;26.60;;;;;;;;;;4981410;28;20662;-80
2022/10/31 03:56:11;;;;;;;41.87;25.77;;;;;;;;;;4994599;28;20292;-79
2022/10/31 03:58:42;;;;;;;32.07;24.00;;;;;;;;;;4994793;28;20296;-80
2022/10/31 04:01:13;;;;;;;34.27;23.73;;;;;;;;;;4994709;28;20308;-79
2022/10/31 04:03:44;;;;;;;35.03;24.43;;;;;;;;;;4994575;28;20255;-79
2022/10/31 04:06:14;;;;;;;34.27;23.97;;;;;;;;;;4994367;28;20271;-80
2022/10/31 04:08:45;;;;;;;29.20;21.50;;;;;;;;;;4994645;28;20229;-80
2022/10/31 04:11:15;;;;;;;26.00;21.00;;;;;;;;;;4994070;28;20249;-80
2022/10/31 04:13:45;;;;;;;31.10;19.83;;;;;;;;;;4975465;28;20293;-79
2022/10/31 04:16:14;;;;;;;26.03;20.23;;;;;;;;;;4990344;28;20271;-80
2022/10/31 04:18:46;;;;;;;26.17;19.93;;;;;;;;;;4994022;28;20296;-80
2022/10/31 04:21:14;;;;;;;28.60;22.40;;;;;;;;;;4994482;28;20718;-80
2022/10/31 04:23:43;;;;;;;27.50;21.20;;;;;;;;;;4994080;28;20205;-79
2022/10/31 04:26:13;;;;;;;25.47;20.37;;;;;;;;;;4994663;28;20709;-80
2022/10/31 04:28:41;;;;;;;29.43;20.63;;;;;;;;;;4994399;28;20642;-79
2022/10/31 04:31:10;;;;;;;30.73;20.60;;;;;;;;;;4994200;28;20312;-79
2022/10/31 04:33:39;;;;;;;27.37;20.27;;;;;;;;;;4994253;28;20240;-80
2022/10/31 04:36:09;;;;;;;28.50;20.80;;;;;;;;;;4994050;28;20299;-79
2022/10/31 04:38:37;;;;;;;23.40;19.13;;;;;;;;;;4994673;28;20260;-80
2022/10/31 04:41:06;;;;;;;53.27;20.97;;;;;;;;;;4994546;28;20249;-80
2022/10/31 04:43:34;;;;;;;32.93;23.30;;;;;;;;;;4994359;28;20273;-80
2022/10/31 04:46:03;;;;;;;29.70;20.73;;;;;;;;;;4988537;28;20202;-80
2022/10/31 04:48:31;;;;;;;23.80;18.97;;;;;;;;;;4974815;28;20357;-80
2022/10/31 04:51:00;;;;;;;25.87;20.50;;;;;;;;;;4977703;28;20706;-79
2022/10/31 04:53:30;;;;;;;23.67;19.07;;;;;;;;;;4993955;28;20228;-79
2022/10/31 04:56:00;;;;;;;22.73;18.70;;;;;;;;;;4993584;28;20228;-79
2022/10/31 04:58:29;;;;;;;23.03;18.77;;;;;;;;;;4994026;28;20202;-79
2022/10/31 05:00:58;;;;;;;24.30;18.17;;;;;;;;;;4983125;28;20280;-79
2022/10/31 05:03:26;;;;;;;29.87;17.03;;;;;;;;;;4980653;28;20209;-80
2022/10/31 05:05:55;;;;;;;22.73;17.67;;;;;;;;;;4994014;28;20217;-80
2022/10/31 05:08:23;;;;;;;26.33;19.97;;;;;;;;;;4996713;28;20252;-80
2022/10/31 05:10:53;;;;;;;26.03;21.87;;;;;;;;;;4998159;28;20275;-80
2022/10/31 05:13:21;;;;;;;28.13;20.67;;;;;;;;;;4997488;28;20654;-79
2022/10/31 05:15:51;;;;;;;57.60;20.47;;;;;;;;;;4998647;28;20216;-80
2022/10/31 05:18:19;;;;;;;21.60;18.87;;;;;;;;;;4998802;28;20666;-80
2022/10/31 05:20:48;;;;;;;21.30;18.10;;;;;;;;;;4996683;28;20239;-80
2022/10/31 05:23:16;;;;;;;20.73;18.13;;;;;;;;;;4997685;28;20225;-79
2022/10/31 05:25:45;;;;;;;24.97;19.97;;;;;;;;;;4997917;28;20568;-80
2022/10/31 05:28:14;;;;;;;29.60;18.10;;;;;;;;;;4995432;28;20206;-80
2022/10/31 05:30:43;;;;;;;20.23;18.07;;;;;;;;;;4996624;28;20248;-80
2022/10/31 05:33:11;;;;;;;22.10;17.77;;;;;;;;;;4997528;28;20205;-80
2022/10/31 05:35:40;;;;;;;29.07;19.90;;;;;;;;;;4984895;28;20259;-80
2022/10/31 05:38:08;;;;;;;21.97;19.33;;;;;;;;;;4989493;28;20292;-80
2022/10/31 05:40:37;;;;;;;39.07;18.50;;;;;;;;;;5001871;28;20664;-80
2022/10/31 05:43:05;;;;;;;63.07;19.33;;;;;;;;;;5000600;28;20233;-79
2022/10/31 05:45:35;;;;;;;48.33;20.00;;;;;;;;;;5003231;28;20205;-80
2022/10/31 05:48:04;;;;;;;96.30;21.20;;;;;;;;;;5003179;28;20214;-80
2022/10/31 05:50:33;;;;;;;25.33;17.83;;;;;;;;;;4997963;28;20706;-80
2022/10/31 05:53:02;;;;;;;22.23;16.30;;;;;;;;;;4996907;28;20239;-79
2022/10/31 05:55:31;;;;;;;20.63;17.10;;;;;;;;;;4997838;28;20197;-80
2022/10/31 05:58:00;;;;;;;19.73;17.43;;;;;;;;;;4997864;28;20259;-80
2022/10/31 06:00:29;;;;;;;23.20;18.07;;;;;;;;;;4997213;28;20239;-80
2022/10/31 06:03:02;;;;;;;22.20;17.20;;;;;;;;;;4997038;28;20288;-80
2022/10/31 06:05:31;;;;;;;21.67;16.50;;;;;;;;;;4997203;28;20198;-80
2022/10/31 06:08:00;;;;;;;18.93;16.23;;;;;;;;;;4997067;28;20611;-80
2022/10/31 06:10:29;;;;;;;19.87;15.53;;;;;;;;;;4996815;28;20272;-80
2022/10/31 06:12:57;;;;;;;36.60;21.17;;;;;;;;;;4996752;28;20288;-80
2022/10/31 06:15:26;;;;;;;53.03;21.70;;;;;;;;;;4996662;28;20654;-80
2022/10/31 06:18:03;;;;;;;34.20;18.57;;;;;;;;;;4988015;28;20244;-79
2022/10/31 06:20:32;;;;;;;22.03;17.53;;;;;;;;;;4996195;28;20260;-80
2022/10/31 06:23:00;;;;;;;24.03;16.80;;;;;;;;;;4996447;28;20236;-80
2022/10/31 06:25:30;;;;;;;21.07;14.97;;;;;;;;;;4996769;28;20682;-80
2022/10/31 06:27:58;;;;;;;21.73;17.53;;;;;;;;;;4995627;28;20259;-80
2022/10/31 06:30:27;;;;;;;20.57;18.23;;;;;;;;;;4996510;28;20237;-80
2022/10/31 06:32:55;;;;;;;64.10;19.27;;;;;;;;;;4995122;28;20601;-80
2022/10/31 06:35:25;;;;;;;90.70;18.97;;;;;;;;;;4990623;28;20217;-80
2022/10/31 06:37:54;;;;;;;82.87;21.40;;;;;;;;;;4977954;28;20236;-80
2022/10/31 06:40:22;;;;;;;164.60;25.13;;;;;;;;;;4992162;28;20324;-80
2022/10/31 06:42:58;;;;;;;151.50;25.60;;;;;;;;;;4996154;28;20216;-80
2022/10/31 06:45:26;;;;;;;56.50;24.63;;;;;;;;;;4996068;28;20279;-80
2022/10/31 06:47:55;;;;;;;57.83;26.17;;;;;;;;;;4985651;28;20297;-80
2022/10/31 06:50:45;;;;;;;59.10;26.30;;;;;;;;;;4989843;28;20360;-80
2022/10/31 06:53:14;;;;;;;57.67;26.27;;;;;;;;;;4996783;28;20617;-80
2022/10/31 06:55:42;;;;;;;51.10;26.70;;;;;;;;;;4997760;28;20209;-80
2022/10/31 06:58:11;;;;;;;42.20;25.83;;;;;;;;;;5000065;28;20232;-80
2022/10/31 07:00:40;;;;;;;40.50;26.60;;;;;;;;;;4980277;28;20260;-80
2022/10/31 07:03:11;;;;;;;35.50;26.17;;;;;;;;;;4997708;28;20217;-80
2022/10/31 07:05:40;;;;;;;38.30;26.13;;;;;;;;;;4995670;28;20646;-79
2022/10/31 07:08:11;;;;;;;34.30;26.00;;;;;;;;;;4988337;28;20236;-80
2022/10/31 07:10:40;;;;;;;29.93;24.87;;;;;;;;;;5000126;28;20221;-80
2022/10/31 07:13:11;;;;;;;29.87;24.63;;;;;;;;;;5000466;28;20243;-80
2022/10/31 07:15:40;;;;;;;35.27;25.43;;;;;;;;;;5001882;28;20608;-80
2022/10/31 07:18:10;;;;;;;28.37;23.50;;;;;;;;;;5005722;28;20189;-80
2022/10/31 07:20:39;;;;;;;38.20;25.57;;;;;;;;;;4999142;28;20249;-80
2022/10/31 07:23:08;;;;;;;31.97;25.00;;;;;;;;;;4998822;28;21458;-80
2022/10/31 07:25:38;;;;;;;30.90;23.90;;;;;;;;;;5000464;28;20631;-80
2022/10/31 07:28:07;;;;;;;29.07;23.63;;;;;;;;;;4998676;28;20224;-80
2022/10/31 07:30:36;;;;;;;29.20;24.97;;;;;;;;;;4997405;28;20228;-80
2022/10/31 07:33:10;;;;;;;29.97;24.23;;;;;;;;;;5000493;28;20220;-80
2022/10/31 07:35:39;;;;;;;29.27;24.43;;;;;;;;;;4999915;28;20723;-80
2022/10/31 07:38:11;;;;;;;31.27;25.03;;;;;;;;;;4999491;28;20707;-80
2022/10/31 07:40:41;;;;;;;30.00;24.50;;;;;;;;;;5000435;28;20232;-80
2022/10/31 07:43:09;;;;;;;30.70;24.13;;;;;;;;;;5000352;28;20236;-80
2022/10/31 07:45:42;;;;;;;35.40;27.33;;;;;;;;;;4998600;28;20214;-80
2022/10/31 07:48:10;;;;;;;34.33;27.10;;;;;;;;;;4991054;28;20273;-80
2022/10/31 07:50:39;;;;;;;39.73;29.17;;;;;;;;;;5001307;28;20221;-80
2022/10/31 07:53:10;;;;;;;36.47;27.60;;;;;;;;;;4995321;28;20308;-80
2022/10/31 07:55:38;;;;;;;33.13;26.70;;;;;;;;;;5003457;28;20265;-80
2022/10/31 07:58:09;;;;;;;36.00;28.33;;;;;;;;;;5003498;28;20209;-80
2022/10/31 08:00:40;;;;;;;35.10;28.13;;;;;;;;;;5006411;28;20229;-80
2022/10/31 08:03:10;;;;;;;37.37;28.97;;;;;;;;;;5004800;28;20320;-80
2022/10/31 08:05:40;;;;;;;38.07;28.73;;;;;;;;;;5004221;28;20220;-80
2022/10/31 08:08:09;;;;;;;36.07;28.33;;;;;;;;;;5006500;28;20325;-80
2022/10/31 08:10:37;;;;;;;34.90;28.07;;;;;;;;;;5002434;28;20768;-80
2022/10/31 08:13:07;;;;;;;39.70;28.77;;;;;;;;;;5006010;28;20212;-80
2022/10/31 08:15:39;;;;;;;36.13;28.50;;;;;;;;;;5004715;28;20205;-80
2022/10/31 08:18:08;;;;;;;34.70;27.27;;;;;;;;;;5000781;28;20248;-80
2022/10/31 08:20:36;;;;;;;34.60;27.77;;;;;;;;;;5000678;28;20216;-80
2022/10/31 08:23:06;;;;;;;36.83;28.97;;;;;;;;;;5000099;28;20235;-80
2022/10/31 08:25:36;;;;;;;35.57;27.83;;;;;;;;;;4996575;28;20205;-80
2022/10/31 08:28:06;;;;;;;36.23;27.37;;;;;;;;;;4994559;28;20563;-79
2022/10/31 08:30:36;;;;;;;34.67;26.87;;;;;;;;;;4997474;28;20284;-79
2022/10/31 08:33:06;;;;;;;35.37;27.13;;;;;;;;;;4992423;28;20201;-80
2022/10/31 08:35:35;;;;;;;34.60;27.33;;;;;;;;;;4997858;28;20236;-80
2022/10/31 08:38:03;;;;;;;34.40;27.50;;;;;;;;;;4998699;28;20205;-80
2022/10/31 08:40:33;;;;;;;34.77;27.40;;;;;;;;;;4993124;28;20225;-80
2022/10/31 08:43:02;;;;;;;37.73;26.90;;;;;;;;;;4997873;28;20287;-80
2022/10/31 08:45:31;;;;;;;35.73;25.87;;;;;;;;;;4998672;28;20236;-79
2022/10/31 08:48:00;;;;;;;35.07;26.33;;;;;;;;;;4996553;28;20241;-80
2022/10/31 08:50:31;;;;;;;33.63;26.27;;;;;;;;;;4997593;28;20236;-80
2022/10/31 08:53:03;;;;;;;29.77;24.77;;;;;;;;;;4997824;28;20209;-80
2022/10/31 08:55:34;;;;;;;36.00;28.03;;;;;;;;;;4997637;28;20209;-80
2022/10/31 08:58:03;;;;;;;38.47;27.93;;;;;;;;;;4991403;28;20577;-80
2022/10/31 09:00:32;;;;;;;35.30;26.90;;;;;;;;;;4996970;28;20225;-79
2022/10/31 09:03:01;;;;;;;33.50;27.60;;;;;;;;;;4997401;28;20229;-80
2022/10/31 09:05:32;;;;;;;33.20;26.27;;;;;;;;;;4996507;28;21090;-80
2022/10/31 09:08:01;;;;;;;34.40;26.83;;;;;;;;;;4997833;28;20195;-80
2022/10/31 09:10:31;;;;;;;31.80;25.77;;;;;;;;;;4995984;28;20229;-80
2022/10/31 09:13:00;;;;;;;40.83;26.83;;;;;;;;;;4994887;28;20197;-80
2022/10/31 09:15:29;;;;;;;33.10;26.20;;;;;;;;;;4992348;28;20210;-80
2022/10/31 09:17:57;;;;;;;34.20;26.80;;;;;;;;;;4976117;28;20202;-79
2022/10/31 09:20:26;;;;;;;32.30;25.30;;;;;;;;;;4975209;28;20225;-80
2022/10/31 09:23:00;;;;;;;34.37;27.33;;;;;;;;;;4991296;28;20248;-80
2022/10/31 09:25:28;;;;;;;31.80;26.03;;;;;;;;;;4976842;28;20325;-79
2022/10/31 09:27:58;;;;;;;33.60;26.40;;;;;;;;;;4995794;28;20292;-80
2022/10/31 09:30:28;;;;;;;30.63;25.33;;;;;;;;;;4994026;28;20240;-78
2022/10/31 09:32:57;;;;;;;29.17;24.63;;;;;;;;;;4993512;28;20205;-78
2022/10/31 09:35:26;;;;;;;30.73;23.80;;;;;;;;;;4993545;28;20694;-78
2022/10/31 09:37:57;;;;;;;29.85;23.80;;;;;;;;;;4992256;28;20244;-78
2022/10/31 09:40:31;;;;;;;28.55;22.58;;;;;;;;;;4990105;28;20222;-78
2022/10/31 09:43:04;;;;;;;30.52;21.83;;;;;;;;;;4980807;28;20296;-78
2022/10/31 09:45:34;;;;;;;25.23;21.05;;;;;;;;;;4992937;28;20405;-78
2022/10/31 09:48:13;;;;;;;26.35;20.48;;;;;;;;;;4988375;28;20193;-78
2022/10/31 09:50:46;;;;;;;24.70;20.77;;;;;;;;;;4983633;28;20706;-78
2022/10/31 09:53:19;;;;;;;30.73;20.52;;;;;;;;;;4994194;28;20271;-78
2022/10/31 09:55:49;;;;;;;24.02;19.73;;;;;;;;;;4996488;28;20232;-78
2022/10/31 09:58:21;;;;;;;23.15;19.80;;;;;;;;;;4981572;28;20250;-77
2022/10/31 10:00:49;;;;;;;24.63;19.75;;;;;;;;;;4997097;28;20248;-78
2022/10/31 10:03:24;;;;;;;22.67;18.50;;;;;;;;;;4985199;28;20284;-78
2022/10/31 10:05:59;;;;;;;24.52;19.23;;;;;;;;;;4977217;28;20288;-78
2022/10/31 10:08:28;;;;;;;22.02;19.10;;;;;;;;;;4977876;28;20238;-77
2022/10/31 10:11:03;;;;;;;22.92;19.73;;;;;;;;;;4993263;28;20312;-78
2022/10/31 10:13:38;;;;;;;25.65;19.38;;;;;;;;;;4996633;28;20236;-78
2022/10/31 10:16:21;;;;;;;23.25;18.73;;;;;;;;;;4995842;28;20248;-78
2022/10/31 10:18:57;;;;;;;23.00;18.80;;;;;;;;;;4987486;28;20430;-78
2022/10/31 10:21:31;;;;;;;23.17;18.38;;;;;;;;;;4993643;28;20237;-79
2022/10/31 10:24:05;;;;;;;23.10;18.83;;;;;;;;;;4987014;28;20236;-79
2022/10/31 10:26:37;;;;;;;24.75;17.80;;;;;;;;;;4997415;28;20248;-79
2022/10/31 10:29:13;;;;;;;22.13;17.65;;;;;;;;;;4997350;28;20229;-78
2022/10/31 10:31:43;;;;;;;20.83;17.50;;;;;;;;;;4994434;28;20311;-79
2022/10/31 10:34:16;;;;;;;20.33;16.92;;;;;;;;;;4996797;28;20209;-79
2022/10/31 10:36:48;;;;;;;22.38;17.38;;;;;;;;;;4986940;28;20233;-79
2022/10/31 10:39:19;;;;;;;26.08;17.38;;;;;;;;;;4992995;28;20633;-79
2022/10/31 10:50:08;;;;;;;20.35;15.40;;;;;;;;;;4976710;28;20594;-78
2022/10/31 10:52:39;;;;;;;18.00;14.05;;;;;;;;;;4976371;28;20229;-78
2022/10/31 10:55:17;;;;;;;19.13;14.23;;;;;;;;;;4995314;28;20709;-78
2022/10/31 10:57:53;;;;;;;17.55;14.35;;;;;;;;;;4986651;28;20248;-79
2022/10/31 11:00:23;;;;;;;19.65;14.55;;;;;;;;;;4976287;28;20194;-78
2022/10/31 11:02:52;;;;;;;20.45;15.27;;;;;;;;;;4989866;28;20661;-78
2022/10/31 11:05:24;;;;;;;20.83;13.85;;;;;;;;;;4992102;28;20284;-78
2022/10/31 11:07:53;;;;;;;20.17;14.55;;;;;;;;;;4995997;28;20252;-79
2022/10/31 11:10:21;;;;;;;16.63;14.68;;;;;;;;;;4983805;28;20297;-78
2022/10/31 11:13:02;;;;;;;21.65;14.45;;;;;;;;;;4995328;28;20251;-78
2022/10/31 11:15:32;;;;;;;17.52;14.82;;;;;;;;;;4995694;28;20622;-78
2022/10/31 11:18:01;;;;;;;22.77;15.00;;;;;;;;;;4982112;28;20276;-78
2022/10/31 11:20:34;;;;;;;18.73;14.35;;;;;;;;;;4975793;28;20226;-78
2022/10/31 11:23:07;;;;;;;19.40;15.00;;;;;;;;;;4981947;28;20224;-78
2022/10/31 11:25:36;;;;;;;20.08;14.27;;;;;;;;;;4995020;28;20205;-78
2022/10/31 11:28:07;;;;;;;15.45;13.65;;;;;;;;;;4995603;28;20613;-78
2022/10/31 11:30:43;;;;;;;19.52;14.35;;;;;;;;;;4995515;28;20312;-78
2022/10/31 11:33:15;;;;;;;18.48;14.07;;;;;;;;;;4994819;28;20768;-77
2022/10/31 11:35:43;;;;;;;16.27;13.35;;;;;;;;;;4976202;28;20198;-77
2022/10/31 11:38:16;;;;;;;15.55;13.20;;;;;;;;;;4988150;28;20267;-78
2022/10/31 11:40:52;;;;;;;18.40;13.95;;;;;;;;;;4988026;28;20225;-77
2022/10/31 11:43:23;;;;;;;17.95;13.23;;;;;;;;;;4995456;28;20297;-78
2022/10/31 11:45:52;;;;;;;16.35;13.20;;;;;;;;;;4995007;28;20193;-77
2022/10/31 11:48:21;;;;;;;16.13;12.98;;;;;;;;;;4982750;28;20264;-78
2022/10/31 11:50:52;;;;;;;18.85;12.80;;;;;;;;;;4975787;28;20236;-78
2022/10/31 11:53:22;;;;;;;16.05;13.63;;;;;;;;;;4984430;28;20213;-78
2022/10/31 11:56:01;;;;;;;14.00;12.50;;;;;;;;;;4975964;28;20242;-78
2022/10/31 11:58:31;;;;;;;18.45;13.43;;;;;;;;;;4976403;28;20217;-78
2022/10/31 12:00:59;;;;;;;15.13;12.45;;;;;;;;;;4994036;28;20275;-78
2022/10/31 12:03:31;;;;;;;21.15;12.30;;;;;;;;;;4997673;28;20311;-78
2022/10/31 12:06:02;;;;;;;15.27;12.35;;;;;;;;;;4993653;28;20229;-78
2022/10/31 12:08:32;;;;;;;16.92;11.90;;;;;;;;;;4994149;28;20674;-78
2022/10/31 12:11:06;;;;;;;13.98;11.43;;;;;;;;;;5000617;28;20305;-78
2022/10/31 12:13:39;;;;;;;15.00;12.10;;;;;;;;;;4993742;28;20203;-78
2022/10/31 12:16:09;;;;;;;17.08;11.93;;;;;;;;;;4987023;28;20236;-78
2022/10/31 12:18:58;;;;;;;15.85;12.10;;;;;;;;;;4994704;28;20209;-78
2022/10/31 12:21:35;;;;;;;17.02;12.32;;;;;;;;;;4994745;28;20698;-78
2022/10/31 12:24:09;;;;;;;19.95;12.82;;;;;;;;;;4985358;28;20287;-78
2022/10/31 12:26:41;;;;;;;16.75;11.77;;;;;;;;;;4979368;28;20259;-78
2022/10/31 12:29:19;;;;;;;13.40;11.07;;;;;;;;;;4975817;28;20682;-78
2022/10/31 12:31:54;;;;;;;14.73;10.90;;;;;;;;;;4975283;28;20261;-78
2022/10/31 12:34:40;;;;;;;16.13;11.52;;;;;;;;;;4974759;28;20715;-78
2022/10/31 12:37:19;;;;;;;16.58;11.70;;;;;;;;;;4987957;28;20201;-78
2022/10/31 12:39:54;;;;;;;15.63;11.27;;;;;;;;;;4993407;28;20236;-78
2022/10/31 12:42:29;;;;;;;16.50;11.85;;;;;;;;;;4990890;28;20311;-78
2022/10/31 12:45:06;;;;;;;16.08;11.10;;;;;;;;;;4989447;28;20217;-78
2022/10/31 12:47:47;;;;;;;14.23;11.38;;;;;;;;;;4978774;28;20197;-79
2022/10/31 12:50:24;;;;;;;14.80;11.35;;;;;;;;;;5013404;28;20691;-78
2022/10/31 12:52:58;;;;;;;15.95;11.75;;;;;;;;;;4997288;28;20228;-78
2022/10/31 12:55:33;;;;;;;14.00;11.18;;;;;;;;;;4993266;28;20208;-78
2022/10/31 12:58:04;;;;;;;17.17;11.75;;;;;;;;;;4993512;28;20212;-79
2022/10/31 13:00:37;;;;;;;16.02;11.45;;;;;;;;;;4994114;28;20251;-78
2022/10/31 13:03:16;;;;;;;18.33;11.20;;;;;;;;;;4993861;28;20201;-78
2022/10/31 13:05:46;;;;;;;15.23;10.27;;;;;;;;;;4992019;28;20632;-78
2022/10/31 13:08:17;;;;;;;13.60;9.45;;;;;;;;;;4987511;28;20726;-78
2022/10/31 13:10:48;;;;;;;15.38;9.30;;;;;;;;;;4993725;28;20224;-78
2022/10/31 13:13:18;;;;;;;14.38;9.70;;;;;;;;;;4984265;28;20213;-78
2022/10/31 13:15:49;;;;;;;12.75;9.52;;;;;;;;;;4993404;28;20571;-78
2022/10/31 13:18:22;;;;;;;12.70;8.95;;;;;;;;;;4977441;28;20206;-78
2022/10/31 13:20:52;;;;;;;12.98;9.07;;;;;;;;;;4981954;28;20307;-79
2022/10/31 13:23:25;;;;;;;13.10;9.25;;;;;;;;;;4993760;28;20201;-78
2022/10/31 13:26:15;;;;;;;14.50;9.15;;;;;;;;;;4992669;28;20292;-78
2022/10/31 13:28:45;;;;;;;13.82;9.80;;;;;;;;;;4992789;28;20209;-78
2022/10/31 13:31:15;;;;;;;17.95;9.70;;;;;;;;;;4978953;28;20229;-78
2022/10/31 13:33:46;;;;;;;14.13;10.13;;;;;;;;;;4997305;28;20263;-78
2022/10/31 13:36:20;;;;;;;16.77;10.48;;;;;;;;;;4997255;28;20235;-78
2022/10/31 13:38:51;;;;;;;14.43;9.73;;;;;;;;;;4996207;28;20279;-78
2022/10/31 13:41:24;;;;;;;13.82;10.45;;;;;;;;;;4996699;28;20312;-77
2022/10/31 13:44:00;;;;;;;17.30;10.55;;;;;;;;;;4996767;28;20308;-79
2022/10/31 13:46:38;;;;;;;16.98;10.75;;;;;;;;;;4997519;28;20673;-78
2022/10/31 13:49:23;;;;;;;17.33;10.48;;;;;;;;;;4997553;28;20621;-78
2022/10/31 13:51:52;;;;;;;14.23;10.40;;;;;;;;;;4989112;28;20261;-78
2022/10/31 13:54:22;;;;;;;15.82;10.55;;;;;;;;;;4987363;28;20340;-78
2022/10/31 13:56:52;;;;;;;14.38;10.10;;;;;;;;;;4996633;28;20189;-78
2022/10/31 13:59:22;;;;;;;16.77;10.20;;;;;;;;;;4996268;28;20245;-78
2022/10/31 14:01:54;;;;;;;16.40;10.20;;;;;;;;;;4987842;28;20217;-77
2022/10/31 14:04:24;;;;;;;15.85;10.40;;;;;;;;;;4992678;28;20209;-78
2022/10/31 14:06:57;;;;;;;21.08;12.50;;;;;;;;;;5014272;28;20192;-78
2022/10/31 14:09:29;;;;;;;18.60;11.52;;;;;;;;;;4995599;28;20591;-78
2022/10/31 14:11:59;;;;;;;18.90;10.40;;;;;;;;;;4985910;28;20229;-78
2022/10/31 14:14:31;;;;;;;32.15;17.38;;;;;;;;;;5004306;28;20553;-78
2022/10/31 14:17:01;;;;;;;15.70;10.93;;;;;;;;;;4997218;28;20267;-77
2022/10/31 14:19:30;;;;;;;33.92;16.50;;;;;;;;;;4996112;28;20209;-77
2022/10/31 14:21:59;;;;;;;22.38;12.10;;;;;;;;;;5001083;28;20641;-78
2022/10/31 14:24:36;;;;;;;17.58;10.75;;;;;;;;;;4993303;28;20264;-78
2022/10/31 14:27:07;;;;;;;20.50;12.27;;;;;;;;;;4981255;28;20197;-77
2022/10/31 14:29:35;;;;;;;18.58;11.52;;;;;;;;;;4996380;28;20244;-77
2022/10/31 14:32:10;;;;;;;19.60;12.43;;;;;;;;;;4996139;28;20320;-77
2022/10/31 14:34:40;;;;;;;19.42;12.05;;;;;;;;;;4994055;28;20204;-77
2022/10/31 14:37:15;;;;;;;18.35;11.73;;;;;;;;;;4995343;28;20299;-77
2022/10/31 14:39:48;;;;;;;17.90;11.32;;;;;;;;;;4993175;28;20284;-77
2022/10/31 14:42:25;;;;;;;18.15;11.98;;;;;;;;;;4991485;28;20725;-78
2022/10/31 14:44:57;;;;;;;18.48;11.77;;;;;;;;;;4984950;28;20248;-77
2022/10/31 14:47:33;;;;;;;19.63;12.07;;;;;;;;;;4996047;28;20674;-77